createdAt,value
2017-04-04T00:00:01.658Z,0
2017-04-04T00:01:02.229Z,0
2017-04-04T00:02:02.802Z,0
2017-04-04T00:03:03.389Z,0
2017-04-04T00:04:03.960Z,0
2017-04-04T00:05:04.533Z,0
2017-04-04T00:06:05.107Z,0
2017-04-04T00:07:05.675Z,0
2017-04-04T00:08:06.248Z,0
2017-04-04T00:09:06.820Z,0
2017-04-04T00:10:07.391Z,0
2017-04-04T00:11:08.162Z,0
2017-04-04T00:12:08.749Z,0
2017-04-04T00:13:09.306Z,0
2017-04-04T00:14:09.877Z,0
2017-04-04T00:15:10.448Z,0
2017-04-04T00:16:11.021Z,0
2017-04-04T00:17:11.595Z,0
2017-04-04T00:18:12.165Z,0
2017-04-04T00:19:12.737Z,0
2017-04-04T00:20:13.311Z,0
2017-04-04T00:21:13.879Z,0
2017-04-04T00:22:14.451Z,0
2017-04-04T00:23:15.023Z,0
2017-04-04T00:24:15.596Z,0
2017-04-04T00:25:16.170Z,0
2017-04-04T00:26:16.938Z,0
2017-04-04T00:27:17.508Z,0
2017-04-04T00:28:18.080Z,0
2017-04-04T00:29:18.651Z,0
2017-04-04T00:30:19.222Z,0
2017-04-04T00:31:19.794Z,0
2017-04-04T00:32:20.366Z,0
2017-04-04T00:33:20.939Z,0
2017-04-04T00:34:21.510Z,0
2017-04-04T00:35:22.080Z,0
2017-04-04T00:36:22.653Z,0
2017-04-04T00:37:23.222Z,0
2017-04-04T00:38:23.795Z,0
2017-04-04T00:39:24.366Z,0
2017-04-04T00:40:24.952Z,0
2017-04-04T00:41:25.725Z,0
2017-04-04T00:42:26.295Z,0
2017-04-04T00:43:26.869Z,0
2017-04-04T00:44:27.439Z,0
2017-04-04T00:45:28.010Z,0
2017-04-04T00:46:28.580Z,0
2017-04-04T00:47:29.153Z,0
2017-04-04T00:48:29.725Z,0
2017-04-04T00:49:30.296Z,0
2017-04-04T00:50:30.867Z,0
2017-04-04T00:51:31.438Z,0
2017-04-04T00:52:32.008Z,0
2017-04-04T00:53:32.580Z,0
2017-04-04T00:54:33.151Z,0
2017-04-04T00:55:33.724Z,0
2017-04-04T00:56:34.494Z,0
2017-04-04T00:57:35.073Z,0
2017-04-04T00:58:35.637Z,0
2017-04-04T00:59:36.224Z,0
2017-04-04T01:00:36.796Z,0
2017-04-04T01:01:37.367Z,0
2017-04-04T01:02:37.938Z,0
2017-04-04T01:03:38.512Z,0
2017-04-04T01:04:39.099Z,0
2017-04-04T01:05:39.671Z,0
2017-04-04T01:06:40.244Z,0
2017-04-04T01:07:40.817Z,0
2017-04-04T01:08:41.401Z,0
2017-04-04T01:09:41.972Z,0
2017-04-04T01:10:42.543Z,0
2017-04-04T01:11:43.314Z,0
2017-04-04T01:12:43.883Z,0
2017-04-04T01:13:44.454Z,0
2017-04-04T01:14:45.024Z,0
2017-04-04T01:15:45.598Z,0
2017-04-04T01:16:46.172Z,0
2017-04-04T01:17:46.743Z,0
2017-04-04T01:18:47.315Z,0
2017-04-04T01:19:47.890Z,0
2017-04-04T01:20:48.460Z,0
2017-04-04T01:21:49.033Z,0
2017-04-04T01:22:49.604Z,0
2017-04-04T01:23:50.189Z,0
2017-04-04T01:24:50.751Z,0
2017-04-04T01:25:51.322Z,0
2017-04-04T01:26:52.093Z,0
2017-04-04T01:27:52.665Z,0
2017-04-04T01:28:53.238Z,0
2017-04-04T01:29:53.808Z,0
2017-04-04T01:30:54.378Z,0
2017-04-04T01:31:54.950Z,0
2017-04-04T01:32:55.521Z,0
2017-04-04T01:33:56.095Z,0
2017-04-04T01:34:56.667Z,0
2017-04-04T01:35:57.269Z,0
2017-04-04T01:36:57.809Z,0
2017-04-04T01:37:58.380Z,0
2017-04-04T01:38:58.951Z,0
2017-04-04T01:39:59.523Z,0
2017-04-04T01:41:00.110Z,0
2017-04-04T01:42:00.881Z,0
2017-04-04T01:43:01.453Z,0
2017-04-04T01:44:02.023Z,0
2017-04-04T01:45:02.596Z,0
2017-04-04T01:46:03.167Z,0
2017-04-04T01:47:03.741Z,0
2017-04-04T01:48:04.312Z,0
2017-04-04T01:49:04.882Z,0
2017-04-04T01:50:05.454Z,0
2017-04-04T01:51:06.026Z,0
2017-04-04T01:52:06.600Z,0
2017-04-04T01:53:07.171Z,0
2017-04-04T01:54:07.740Z,0
2017-04-04T01:55:08.317Z,0
2017-04-04T01:56:08.885Z,0
2017-04-04T01:57:09.656Z,0
2017-04-04T01:58:10.228Z,0
2017-04-04T01:59:10.816Z,0
2017-04-04T02:00:11.387Z,0
2017-04-04T02:01:11.960Z,0
2017-04-04T02:02:12.532Z,0
2017-04-04T02:03:13.102Z,0
2017-04-04T02:04:13.674Z,0
2017-04-04T02:05:14.247Z,0
2017-04-04T02:06:14.818Z,0
2017-04-04T02:07:15.390Z,0
2017-04-04T02:08:15.962Z,0
2017-04-04T02:09:16.531Z,0
2017-04-04T02:10:17.102Z,0
2017-04-04T02:11:17.673Z,0
2017-04-04T02:12:18.443Z,0
2017-04-04T02:13:19.013Z,0
2017-04-04T02:14:19.585Z,0
2017-04-04T02:15:20.156Z,0
2017-04-04T02:16:20.732Z,0
2017-04-04T02:17:21.300Z,0
2017-04-04T02:18:21.869Z,0
2017-04-04T02:19:22.441Z,0
2017-04-04T02:20:23.012Z,0
2017-04-04T02:21:23.584Z,0
2017-04-04T02:22:24.156Z,0
2017-04-04T02:23:24.727Z,0
2017-04-04T02:24:25.298Z,0
2017-04-04T02:25:25.871Z,0
2017-04-04T02:26:26.442Z,0
2017-04-04T02:27:27.214Z,0
2017-04-04T02:28:27.786Z,0
2017-04-04T02:29:28.357Z,0
2017-04-04T02:30:28.928Z,0
2017-04-04T02:31:29.498Z,0
2017-04-04T02:32:30.068Z,0
2017-04-04T02:33:30.641Z,0
2017-04-04T02:34:31.213Z,0
2017-04-04T02:35:31.786Z,0
2017-04-04T02:36:32.361Z,0
2017-04-04T02:37:32.925Z,0
2017-04-04T02:38:33.498Z,0
2017-04-04T02:39:34.087Z,0
2017-04-04T02:40:34.674Z,0
2017-04-04T02:41:35.247Z,0
2017-04-04T02:42:36.017Z,0
2017-04-04T02:43:36.590Z,0
2017-04-04T02:44:37.160Z,0
2017-04-04T02:45:37.731Z,0
2017-04-04T02:46:38.303Z,0
2017-04-04T02:47:38.875Z,0
2017-04-04T02:48:39.447Z,0
2017-04-04T02:49:40.017Z,0
2017-04-04T02:50:40.588Z,0
2017-04-04T02:51:41.160Z,0
2017-04-04T02:52:41.730Z,0
2017-04-04T02:53:42.301Z,0
2017-04-04T02:54:42.873Z,0
2017-04-04T02:55:43.444Z,0
2017-04-04T02:56:44.017Z,0
2017-04-04T02:57:44.786Z,0
2017-04-04T02:58:45.357Z,0
2017-04-04T02:59:45.929Z,0
2017-04-04T03:00:46.536Z,0
2017-04-04T03:01:47.071Z,0
2017-04-04T03:02:47.641Z,0
2017-04-04T03:03:48.213Z,0
2017-04-04T03:04:48.785Z,0
2017-04-04T03:05:49.356Z,0
2017-04-04T03:06:49.926Z,0
2017-04-04T03:07:50.497Z,0
2017-04-04T03:08:51.068Z,0
2017-04-04T03:09:51.637Z,0
2017-04-04T03:10:52.208Z,0
2017-04-04T03:11:52.778Z,0
2017-04-04T03:12:53.548Z,0
2017-04-04T03:13:54.118Z,0
2017-04-04T03:14:54.689Z,0
2017-04-04T03:15:55.260Z,0
2017-04-04T03:16:55.832Z,0
2017-04-04T03:17:56.403Z,0
2017-04-04T03:18:56.975Z,0
2017-04-04T03:19:57.541Z,0
2017-04-04T03:20:58.113Z,0
2017-04-04T03:21:58.684Z,0
2017-04-04T03:22:59.254Z,0
2017-04-04T03:23:59.826Z,0
2017-04-04T03:25:00.396Z,0
2017-04-04T03:26:00.966Z,0
2017-04-04T03:27:01.551Z,0
2017-04-04T03:28:02.337Z,0
2017-04-04T03:29:02.908Z,0
2017-04-04T03:30:03.478Z,0
2017-04-04T03:31:04.064Z,0
2017-04-04T03:32:04.634Z,0
2017-04-04T03:33:05.204Z,0
2017-04-04T03:34:05.776Z,0
2017-04-04T03:35:06.348Z,0
2017-04-04T03:36:06.917Z,0
2017-04-04T03:37:07.488Z,0
2017-04-04T03:38:08.058Z,0
2017-04-04T03:39:08.629Z,0
2017-04-04T03:40:09.201Z,0
2017-04-04T03:41:09.771Z,0
2017-04-04T03:42:10.341Z,0
2017-04-04T03:43:11.109Z,0
2017-04-04T03:44:11.680Z,0
2017-04-04T03:45:12.250Z,0
2017-04-04T03:46:12.821Z,0
2017-04-04T03:47:13.406Z,0
2017-04-04T03:48:13.989Z,0
2017-04-04T03:49:14.551Z,0
2017-04-04T03:50:15.122Z,0
2017-04-04T03:51:15.708Z,0
2017-04-04T03:52:16.278Z,0
2017-04-04T03:53:16.847Z,0
2017-04-04T03:54:17.432Z,0
2017-04-04T03:55:18.011Z,0
2017-04-04T03:56:18.576Z,0
2017-04-04T03:57:19.147Z,0
2017-04-04T03:58:19.736Z,0
2017-04-04T03:59:20.305Z,0
2017-04-04T04:00:20.874Z,0
2017-04-04T04:01:21.446Z,0
2017-04-04T04:02:22.016Z,0
2017-04-04T04:03:22.588Z,0
2017-04-04T04:04:23.158Z,0
2017-04-04T04:05:23.729Z,0
2017-04-04T04:06:24.299Z,0
2017-04-04T04:07:24.869Z,0
2017-04-04T04:08:25.439Z,0
2017-04-04T04:09:26.009Z,0
2017-04-04T04:10:26.580Z,0
2017-04-04T04:11:27.153Z,0
2017-04-04T04:12:27.722Z,0
2017-04-04T04:13:28.292Z,0
2017-04-04T04:14:28.862Z,0
2017-04-04T04:15:29.433Z,0
2017-04-04T04:16:30.005Z,0
2017-04-04T04:17:30.574Z,0
2017-04-04T04:18:31.145Z,0
2017-04-04T04:19:31.717Z,0
2017-04-04T04:20:32.287Z,0
2017-04-04T04:21:32.859Z,0
2017-04-04T04:22:33.429Z,0
2017-04-04T04:23:34.000Z,0
2017-04-04T04:24:34.572Z,0
2017-04-04T04:25:35.140Z,0
2017-04-04T04:26:35.726Z,4
2017-04-04T04:27:36.297Z,0
2017-04-04T04:28:36.867Z,0
2017-04-04T04:29:37.438Z,4
2017-04-04T04:30:38.025Z,4
2017-04-04T04:31:38.597Z,4
2017-04-04T04:32:39.166Z,4
2017-04-04T04:33:39.735Z,4
2017-04-04T04:34:40.305Z,8
2017-04-04T04:35:40.876Z,8
2017-04-04T04:36:41.448Z,8
2017-04-04T04:37:42.019Z,12
2017-04-04T04:38:42.790Z,12
2017-04-04T04:39:43.361Z,16
2017-04-04T04:40:43.932Z,20
2017-04-04T04:41:44.503Z,24
2017-04-04T04:42:45.075Z,28
2017-04-04T04:43:45.647Z,32
2017-04-04T04:44:46.218Z,40
2017-04-04T04:45:46.788Z,44
2017-04-04T04:46:47.361Z,52
2017-04-04T04:47:47.932Z,64
2017-04-04T04:48:48.501Z,68
2017-04-04T04:49:49.072Z,80
2017-04-04T04:50:49.644Z,92
2017-04-04T04:51:50.219Z,100
2017-04-04T04:52:50.791Z,120
2017-04-04T04:53:51.564Z,132
2017-04-04T04:54:52.151Z,148
2017-04-04T04:55:52.724Z,168
2017-04-04T04:56:53.297Z,184
2017-04-04T04:57:53.872Z,204
2017-04-04T04:58:54.444Z,224
2017-04-04T04:59:55.016Z,248
2017-04-04T05:00:55.590Z,268
2017-04-04T05:01:56.162Z,296
2017-04-04T05:02:56.739Z,320
2017-04-04T05:03:57.309Z,348
2017-04-04T05:04:57.885Z,376
2017-04-04T05:05:58.457Z,404
2017-04-04T05:06:59.031Z,436
2017-04-04T05:07:59.617Z,464
2017-04-04T05:09:00.193Z,500
2017-04-04T05:10:00.766Z,532
2017-04-04T05:11:01.357Z,564
2017-04-04T05:12:01.929Z,600
2017-04-04T05:13:02.503Z,632
2017-04-04T05:14:03.076Z,668
2017-04-04T05:15:03.649Z,708
2017-04-04T05:16:04.223Z,744
2017-04-04T05:17:04.797Z,780
2017-04-04T05:18:05.388Z,820
2017-04-04T05:19:05.961Z,856
2017-04-04T05:20:06.534Z,896
2017-04-04T05:21:07.108Z,932
2017-04-04T05:22:07.680Z,972
2017-04-04T05:23:08.254Z,1008
2017-04-04T05:24:08.830Z,1048
2017-04-04T05:25:09.403Z,1088
2017-04-04T05:26:09.978Z,1124
2017-04-04T05:27:10.564Z,1160
2017-04-04T05:28:11.129Z,1196
2017-04-04T05:29:11.703Z,1232
2017-04-04T05:30:12.276Z,1268
2017-04-04T05:31:12.851Z,1304
2017-04-04T05:32:13.426Z,1336
2017-04-04T05:33:14.000Z,1376
2017-04-04T05:34:14.576Z,1408
2017-04-04T05:35:15.151Z,1440
2017-04-04T05:36:15.726Z,1476
2017-04-04T05:37:16.301Z,1508
2017-04-04T05:38:16.877Z,1540
2017-04-04T05:39:17.468Z,1572
2017-04-04T05:40:18.041Z,1600
2017-04-04T05:41:18.618Z,1632
2017-04-04T05:42:19.191Z,1664
2017-04-04T05:43:19.766Z,1692
2017-04-04T05:44:20.340Z,1720
2017-04-04T05:45:20.915Z,1748
2017-04-04T05:46:21.491Z,1772
2017-04-04T05:47:22.065Z,1804
2017-04-04T05:48:22.640Z,1828
2017-04-04T05:49:23.215Z,1856
2017-04-04T05:50:23.791Z,1880
2017-04-04T05:51:24.365Z,1904
2017-04-04T05:52:24.938Z,1932
2017-04-04T05:53:25.515Z,1960
2017-04-04T05:54:26.088Z,1988
2017-04-04T05:55:26.665Z,2016
2017-04-04T05:56:27.240Z,2044
2017-04-04T05:57:27.815Z,2068
2017-04-04T05:58:28.389Z,2092
2017-04-04T05:59:28.963Z,2116
2017-04-04T06:00:29.539Z,2140
2017-04-04T06:01:30.112Z,2164
2017-04-04T06:02:30.686Z,2184
2017-04-04T06:03:31.263Z,2204
2017-04-04T06:04:31.838Z,2228
2017-04-04T06:05:32.411Z,2248
2017-04-04T06:06:32.987Z,2272
2017-04-04T06:07:33.565Z,2288
2017-04-04T06:08:34.137Z,2308
2017-04-04T06:09:34.713Z,2324
2017-04-04T06:10:35.289Z,2348
2017-04-04T06:11:35.869Z,2360
2017-04-04T06:12:36.438Z,2380
2017-04-04T06:13:37.013Z,2400
2017-04-04T06:14:37.790Z,2420
2017-04-04T06:15:38.364Z,2436
2017-04-04T06:16:38.940Z,2452
2017-04-04T06:17:39.514Z,2468
2017-04-04T06:18:40.089Z,2492
2017-04-04T06:19:40.664Z,2508
2017-04-04T06:20:41.238Z,2524
2017-04-04T06:21:41.829Z,2548
2017-04-04T06:22:42.419Z,2560
2017-04-04T06:23:42.993Z,2572
2017-04-04T06:24:43.568Z,2572
2017-04-04T06:25:44.155Z,2580
2017-04-04T06:26:44.732Z,2596
2017-04-04T06:27:45.305Z,2608
2017-04-04T06:28:45.880Z,2624
2017-04-04T06:29:46.460Z,2640
2017-04-04T06:30:47.031Z,2656
2017-04-04T06:31:47.608Z,2672
2017-04-04T06:32:48.181Z,2688
2017-04-04T06:33:48.758Z,2704
2017-04-04T06:34:49.535Z,2716
2017-04-04T06:35:50.113Z,2732
2017-04-04T06:36:50.705Z,2744
2017-04-04T06:37:51.282Z,2760
2017-04-04T06:38:51.858Z,2776
2017-04-04T06:39:52.434Z,2788
2017-04-04T06:40:53.011Z,2804
2017-04-04T06:41:53.589Z,2820
2017-04-04T06:42:54.165Z,2832
2017-04-04T06:43:54.742Z,2848
2017-04-04T06:44:55.320Z,2856
2017-04-04T06:45:55.897Z,2868
2017-04-04T06:46:56.472Z,2880
2017-04-04T06:47:57.049Z,2892
2017-04-04T06:48:57.627Z,2904
2017-04-04T06:49:58.203Z,2924
2017-04-04T06:50:58.781Z,2944
2017-04-04T06:51:59.357Z,2964
2017-04-04T06:52:59.947Z,2992
2017-04-04T06:54:00.526Z,3016
2017-04-04T06:55:01.101Z,3036
2017-04-04T06:56:01.678Z,3068
2017-04-04T06:57:02.254Z,3112
2017-04-04T06:58:02.831Z,3156
2017-04-04T06:59:03.409Z,3180
2017-04-04T07:00:03.987Z,3152
2017-04-04T07:01:04.563Z,3112
2017-04-04T07:02:05.142Z,3088
2017-04-04T07:03:05.718Z,3080
2017-04-04T07:04:06.294Z,3104
2017-04-04T07:05:06.873Z,3116
2017-04-04T07:06:07.469Z,3128
2017-04-04T07:07:08.057Z,3128
2017-04-04T07:08:08.636Z,3136
2017-04-04T07:09:09.213Z,3152
2017-04-04T07:10:09.791Z,3152
2017-04-04T07:11:10.367Z,3164
2017-04-04T07:12:10.946Z,3160
2017-04-04T07:13:11.522Z,3164
2017-04-04T07:14:12.100Z,3176
2017-04-04T07:15:12.678Z,3180
2017-04-04T07:16:13.261Z,3192
2017-04-04T07:17:13.833Z,3192
2017-04-04T07:18:14.411Z,3212
2017-04-04T07:19:14.989Z,3244
2017-04-04T07:20:15.568Z,3224
2017-04-04T07:21:16.145Z,3188
2017-04-04T07:22:16.724Z,3152
2017-04-04T07:23:17.301Z,3048
2017-04-04T07:24:17.880Z,3040
2017-04-04T07:25:18.456Z,2980
2017-04-04T07:26:19.034Z,2972
2017-04-04T07:27:19.612Z,2996
2017-04-04T07:28:20.189Z,3116
2017-04-04T07:29:20.766Z,3208
2017-04-04T07:30:21.344Z,3280
2017-04-04T07:31:21.922Z,3304
2017-04-04T07:32:22.498Z,3332
2017-04-04T07:33:23.077Z,3356
2017-04-04T07:34:23.654Z,3380
2017-04-04T07:35:24.433Z,3400
2017-04-04T07:36:25.010Z,3420
2017-04-04T07:37:25.589Z,3456
2017-04-04T07:38:26.169Z,3496
2017-04-04T07:39:26.762Z,3584
2017-04-04T07:40:27.339Z,3700
2017-04-04T07:41:27.917Z,3876
2017-04-04T07:42:28.498Z,3992
2017-04-04T07:43:29.074Z,4080
2017-04-04T07:44:29.650Z,4172
2017-04-04T07:45:30.227Z,4172
2017-04-04T07:46:30.806Z,4144
2017-04-04T07:47:31.386Z,4056
2017-04-04T07:48:31.962Z,4036
2017-04-04T07:49:32.541Z,3960
2017-04-04T07:50:33.119Z,3860
2017-04-04T07:51:33.698Z,3740
2017-04-04T07:52:34.275Z,3640
2017-04-04T07:53:34.853Z,3552
2017-04-04T07:54:35.432Z,3492
2017-04-04T07:55:36.009Z,3448
2017-04-04T07:56:36.588Z,3424
2017-04-04T07:57:37.181Z,3412
2017-04-04T07:58:37.758Z,3404
2017-04-04T07:59:38.338Z,3396
2017-04-04T08:00:39.116Z,3396
2017-04-04T08:01:39.693Z,3380
2017-04-04T08:02:40.273Z,3364
2017-04-04T08:03:40.850Z,3352
2017-04-04T08:04:41.429Z,3340
2017-04-04T08:05:42.006Z,3332
2017-04-04T08:06:42.600Z,3332
2017-04-04T08:07:43.186Z,3328
2017-04-04T08:08:43.758Z,3324
2017-04-04T08:09:44.337Z,3324
2017-04-04T08:10:45.115Z,3320
2017-04-04T08:11:45.693Z,3316
2017-04-04T08:12:46.269Z,3312
2017-04-04T08:13:46.849Z,3304
2017-04-04T08:14:47.426Z,3300
2017-04-04T08:15:48.003Z,3284
2017-04-04T08:16:48.584Z,3276
2017-04-04T08:17:49.167Z,3280
2017-04-04T08:18:49.740Z,3276
2017-04-04T08:19:50.323Z,3268
2017-04-04T08:20:50.897Z,3272
2017-04-04T08:21:51.478Z,3284
2017-04-04T08:22:52.056Z,3292
2017-04-04T08:23:52.648Z,3300
2017-04-04T08:24:53.228Z,3308
2017-04-04T08:25:54.006Z,3316
2017-04-04T08:26:54.584Z,3316
2017-04-04T08:27:55.162Z,3316
2017-04-04T08:28:55.742Z,3312
2017-04-04T08:29:56.321Z,3316
2017-04-04T08:30:56.916Z,3324
2017-04-04T08:31:57.497Z,3320
2017-04-04T08:32:58.072Z,3336
2017-04-04T08:33:58.651Z,3336
2017-04-04T08:34:59.229Z,3344
2017-04-04T08:36:00.008Z,3340
2017-04-04T08:37:00.586Z,3344
2017-04-04T08:38:01.164Z,3348
2017-04-04T08:39:01.744Z,3352
2017-04-04T08:44:04.535Z,2868
2017-04-04T08:45:05.125Z,2868
2017-04-04T08:46:05.714Z,2864
2017-04-04T08:47:06.294Z,2868
2017-04-04T08:48:06.873Z,2864
2017-04-04T08:49:07.497Z,2852
2017-04-04T08:50:08.029Z,2840
2017-04-04T08:51:08.609Z,2836
2017-04-04T08:52:09.187Z,2832
2017-04-04T08:53:09.766Z,2828
2017-04-04T08:54:10.363Z,2836
2017-04-04T08:55:10.941Z,2840
2017-04-04T08:56:11.524Z,2840
2017-04-04T08:57:12.099Z,2840
2017-04-04T08:58:12.684Z,2840
2017-04-04T08:59:13.456Z,2840
2017-04-04T09:00:14.035Z,2844
2017-04-04T09:01:14.613Z,2848
2017-04-04T09:02:15.195Z,2852
2017-04-04T09:03:15.788Z,2852
2017-04-04T09:04:16.366Z,2852
2017-04-04T09:05:16.961Z,2852
2017-04-04T09:06:17.540Z,2852
2017-04-04T09:07:18.118Z,2856
2017-04-04T09:08:18.697Z,2856
2017-04-04T09:09:19.277Z,2864
2017-04-04T09:10:19.856Z,2872
2017-04-04T09:11:20.433Z,2876
2017-04-04T09:12:21.012Z,2876
2017-04-04T09:13:21.594Z,2880
2017-04-04T09:14:22.172Z,2884
2017-04-04T09:15:22.771Z,2880
2017-04-04T09:16:23.347Z,2884
2017-04-04T09:17:23.925Z,2884
2017-04-04T09:18:24.505Z,2896
2017-04-04T09:19:25.082Z,2904
2017-04-04T09:20:25.662Z,2908
2017-04-04T09:21:26.242Z,2912
2017-04-04T09:22:26.823Z,2912
2017-04-04T09:23:27.400Z,2904
2017-04-04T09:24:28.180Z,2908
2017-04-04T09:25:28.759Z,2908
2017-04-04T09:26:29.339Z,2904
2017-04-04T09:27:29.918Z,2908
2017-04-04T09:28:30.499Z,2908
2017-04-04T09:29:31.077Z,2908
2017-04-04T09:30:31.656Z,2908
2017-04-04T09:31:32.236Z,2912
2017-04-04T09:32:32.814Z,2916
2017-04-04T09:33:33.391Z,2924
2017-04-04T09:34:33.970Z,2924
2017-04-04T09:35:34.550Z,2932
2017-04-04T09:36:35.129Z,2928
2017-04-04T09:37:35.709Z,2940
2017-04-04T09:38:36.289Z,2944
2017-04-04T09:39:37.077Z,2944
2017-04-04T09:40:37.659Z,2936
2017-04-04T09:41:38.234Z,2940
2017-04-04T09:42:38.815Z,2944
2017-04-04T09:43:39.394Z,2944
2017-04-04T09:44:39.973Z,2940
2017-04-04T09:45:40.553Z,2936
2017-04-04T09:46:41.133Z,2932
2017-04-04T09:47:41.711Z,2928
2017-04-04T09:48:42.290Z,2928
2017-04-04T09:49:42.872Z,2936
2017-04-04T09:50:43.450Z,2948
2017-04-04T09:51:44.029Z,2976
2017-04-04T09:52:44.609Z,2992
2017-04-04T09:53:45.194Z,2996
2017-04-04T09:54:45.969Z,2988
2017-04-04T09:55:46.550Z,2980
2017-04-04T09:56:47.132Z,2968
2017-04-04T09:57:47.710Z,2968
2017-04-04T09:58:48.288Z,2976
2017-04-04T09:59:48.869Z,2976
2017-04-04T10:00:49.449Z,2964
2017-04-04T10:01:50.029Z,2964
2017-04-04T10:02:50.607Z,2956
2017-04-04T10:03:51.188Z,2960
2017-04-04T10:04:51.973Z,2976
2017-04-04T10:05:52.548Z,2984
2017-04-04T10:06:53.130Z,2980
2017-04-04T10:07:53.709Z,2976
2017-04-04T10:08:54.290Z,2980
2017-04-04T10:09:54.872Z,3020
2017-04-04T10:10:55.453Z,3040
2017-04-04T10:11:56.031Z,3048
2017-04-04T10:12:56.610Z,3056
2017-04-04T10:13:57.191Z,3056
2017-04-04T10:14:57.771Z,3048
2017-04-04T10:15:58.351Z,3048
2017-04-04T10:16:58.930Z,3048
2017-04-04T10:17:59.511Z,3060
2017-04-04T10:19:00.091Z,3060
2017-04-04T10:20:00.670Z,3056
2017-04-04T10:21:01.251Z,3064
2017-04-04T10:22:01.834Z,3084
2017-04-04T10:23:02.412Z,3088
2017-04-04T10:24:02.993Z,3108
2017-04-04T10:25:03.575Z,3124
2017-04-04T10:26:04.156Z,3144
2017-04-04T10:27:04.736Z,3148
2017-04-04T10:28:05.315Z,3132
2017-04-04T10:29:05.897Z,3112
2017-04-04T10:30:06.678Z,3080
2017-04-04T10:31:07.257Z,3036
2017-04-04T10:32:07.837Z,3036
2017-04-04T10:33:08.417Z,3036
2017-04-04T10:34:08.997Z,3036
2017-04-04T10:35:09.580Z,3040
2017-04-04T10:36:10.157Z,3056
2017-04-04T10:37:10.754Z,3072
2017-04-04T10:38:11.349Z,3072
2017-04-04T10:39:11.946Z,3072
2017-04-04T10:40:12.542Z,3072
2017-04-04T10:41:13.125Z,3052
2017-04-04T10:42:13.702Z,3032
2017-04-04T10:43:14.282Z,3048
2017-04-04T10:44:14.862Z,3084
2017-04-04T10:45:15.645Z,3108
2017-04-04T10:46:16.224Z,3156
2017-04-04T10:47:16.804Z,3200
2017-04-04T10:48:17.384Z,3216
2017-04-04T10:49:17.964Z,3204
2017-04-04T10:50:18.543Z,3180
2017-04-04T10:51:19.124Z,3156
2017-04-04T10:52:19.704Z,3152
2017-04-04T10:53:20.285Z,3152
2017-04-04T10:54:20.862Z,3148
2017-04-04T10:55:21.643Z,3152
2017-04-04T10:56:22.222Z,3140
2017-04-04T10:57:22.807Z,3160
2017-04-04T10:58:23.401Z,3172
2017-04-04T10:59:23.983Z,3188
2017-04-04T11:00:24.562Z,3200
2017-04-04T11:01:25.142Z,3216
2017-04-04T11:02:25.722Z,3212
2017-04-04T11:03:26.300Z,3220
2017-04-04T11:04:26.880Z,3200
2017-04-04T11:05:27.460Z,3180
2017-04-04T11:06:28.041Z,3172
2017-04-04T11:07:28.638Z,3176
2017-04-04T11:08:29.234Z,3208
2017-04-04T11:09:29.816Z,3220
2017-04-04T11:10:30.396Z,3252
2017-04-04T11:11:30.977Z,3264
2017-04-04T11:12:31.558Z,3288
2017-04-04T11:13:32.139Z,3288
2017-04-04T11:14:32.719Z,3300
2017-04-04T11:15:33.300Z,3320
2017-04-04T11:16:33.883Z,3364
2017-04-04T11:17:34.463Z,3404
2017-04-04T11:18:35.082Z,3416
2017-04-04T11:19:35.640Z,3428
2017-04-04T11:20:36.421Z,3452
2017-04-04T11:21:37.005Z,3472
2017-04-04T11:22:37.583Z,3496
2017-04-04T11:23:38.178Z,3492
2017-04-04T11:24:38.777Z,3484
2017-04-04T11:25:39.341Z,3500
2017-04-04T11:26:39.923Z,3512
2017-04-04T11:27:40.504Z,3544
2017-04-04T11:28:41.100Z,3560
2017-04-04T11:29:41.682Z,3560
2017-04-04T11:30:42.261Z,3556
2017-04-04T11:31:42.843Z,3548
2017-04-04T11:32:43.424Z,3524
2017-04-04T11:33:44.003Z,3492
2017-04-04T11:34:44.585Z,3472
2017-04-04T11:35:45.366Z,3480
2017-04-04T11:36:45.946Z,3484
2017-04-04T11:37:46.528Z,3508
2017-04-04T11:38:47.108Z,3516
2017-04-04T11:39:47.689Z,3516
2017-04-04T11:40:48.271Z,3516
2017-04-04T11:41:48.854Z,3512
2017-04-04T11:42:49.433Z,3516
2017-04-04T11:43:50.014Z,3528
2017-04-04T11:44:50.595Z,3540
2017-04-04T11:45:51.175Z,3528
2017-04-04T11:46:51.756Z,3528
2017-04-04T11:47:52.338Z,3528
2017-04-04T11:48:52.919Z,3536
2017-04-04T11:49:53.502Z,3612
2017-04-04T11:50:54.082Z,3628
2017-04-04T11:51:54.664Z,3644
2017-04-04T11:52:55.246Z,3660
2017-04-04T11:53:55.829Z,3712
2017-04-04T11:54:56.409Z,3720
2017-04-04T11:55:56.991Z,3708
2017-04-04T11:56:57.574Z,3684
2017-04-04T11:57:58.170Z,3664
2017-04-04T11:58:58.755Z,3664
2017-04-04T11:59:59.351Z,3656
2017-04-04T12:00:59.933Z,3620
2017-04-04T12:02:00.514Z,3620
2017-04-04T12:03:01.095Z,3632
2017-04-04T12:04:01.678Z,3660
2017-04-04T12:05:02.274Z,3692
2017-04-04T12:06:02.856Z,3728
2017-04-04T12:07:03.437Z,3780
2017-04-04T12:08:04.018Z,3812
2017-04-04T12:09:04.603Z,3832
2017-04-04T12:10:05.196Z,3872
2017-04-04T12:11:05.979Z,3884
2017-04-04T12:12:06.561Z,3892
2017-04-04T12:13:07.142Z,3888
2017-04-04T12:14:07.726Z,3880
2017-04-04T12:15:08.307Z,3864
2017-04-04T12:16:08.888Z,3852
2017-04-04T12:17:09.470Z,3840
2017-04-04T12:18:10.067Z,3832
2017-04-04T12:19:10.649Z,3840
2017-04-04T12:20:11.229Z,3852
2017-04-04T12:21:12.014Z,3856
2017-04-04T12:22:12.611Z,3860
2017-04-04T12:23:13.197Z,3848
2017-04-04T12:24:13.774Z,3836
2017-04-04T12:25:14.355Z,3836
2017-04-04T12:26:14.936Z,3844
2017-04-04T12:27:15.521Z,3860
2017-04-04T12:28:16.101Z,3872
2017-04-04T12:29:16.695Z,3876
2017-04-04T12:30:17.275Z,3880
2017-04-04T12:31:17.855Z,3880
2017-04-04T12:32:18.439Z,3892
2017-04-04T12:33:19.018Z,3888
2017-04-04T12:34:19.600Z,3880
2017-04-04T12:35:20.182Z,3868
2017-04-04T12:36:20.964Z,3880
2017-04-04T12:37:21.546Z,3884
2017-04-04T12:38:22.129Z,3900
2017-04-04T12:39:22.714Z,3920
2017-04-04T12:40:23.290Z,3952
2017-04-04T12:41:23.872Z,3972
2017-04-04T12:42:24.460Z,4000
2017-04-04T12:43:25.036Z,4016
2017-04-04T12:44:25.617Z,4028
2017-04-04T12:45:26.200Z,4040
2017-04-04T12:46:26.781Z,4068
2017-04-04T12:47:27.363Z,4104
2017-04-04T12:48:27.944Z,4132
2017-04-04T12:49:28.527Z,4152
2017-04-04T12:50:29.110Z,4176
2017-04-04T12:51:29.891Z,4208
2017-04-04T12:52:30.474Z,4256
2017-04-04T12:53:31.055Z,4292
2017-04-04T12:54:31.636Z,4312
2017-04-04T12:55:32.233Z,4336
2017-04-04T12:56:32.814Z,4368
2017-04-04T12:57:33.397Z,4404
2017-04-04T12:58:33.995Z,4424
2017-04-04T12:59:34.577Z,4428
2017-04-04T13:00:35.160Z,4436
2017-04-04T13:01:35.742Z,4452
2017-04-04T13:02:36.338Z,4444
2017-04-04T13:03:36.919Z,4440
2017-04-04T13:04:37.501Z,4448
2017-04-04T13:05:38.082Z,4472
2017-04-04T13:06:38.664Z,4492
2017-04-04T13:07:39.248Z,4512
2017-04-04T13:08:39.830Z,4548
2017-04-04T13:09:40.411Z,4568
2017-04-04T13:10:40.993Z,4572
2017-04-04T13:11:41.777Z,4580
2017-04-04T13:12:42.358Z,4588
2017-04-04T13:13:42.939Z,4580
2017-04-04T13:14:43.522Z,4564
2017-04-04T13:15:44.103Z,4552
2017-04-04T13:16:44.684Z,4552
2017-04-04T13:17:45.268Z,4576
2017-04-04T13:18:45.865Z,4584
2017-04-04T13:19:46.452Z,4608
2017-04-04T13:20:47.029Z,4624
2017-04-04T13:21:47.611Z,4640
2017-04-04T13:22:48.194Z,4672
2017-04-04T13:23:48.776Z,4696
2017-04-04T13:24:49.374Z,4720
2017-04-04T13:25:49.953Z,4744
2017-04-04T13:26:50.536Z,4764
2017-04-04T13:27:51.116Z,4784
2017-04-04T13:28:51.707Z,4824
2017-04-04T13:29:52.280Z,4864
2017-04-04T13:30:52.861Z,4904
2017-04-04T13:31:53.645Z,4932
2017-04-04T13:32:54.226Z,4964
2017-04-04T13:33:54.809Z,5012
2017-04-04T13:34:55.392Z,5056
2017-04-04T13:35:55.974Z,5092
2017-04-04T13:36:56.556Z,5136
2017-04-04T13:37:57.138Z,5156
2017-04-04T13:38:57.720Z,5180
2017-04-04T13:39:58.301Z,5200
2017-04-04T13:40:58.883Z,5212
2017-04-04T13:41:59.467Z,5232
2017-04-04T13:43:00.050Z,5248
2017-04-04T13:44:00.630Z,5260
2017-04-04T13:45:01.212Z,5272
2017-04-04T13:46:01.795Z,5292
2017-04-04T13:47:02.576Z,5308
2017-04-04T13:48:03.159Z,5336
2017-04-04T13:49:03.743Z,5372
2017-04-04T13:50:04.329Z,5400
2017-04-04T13:51:04.908Z,5428
2017-04-04T13:52:05.492Z,5448
2017-04-04T13:53:06.075Z,5460
2017-04-04T13:54:06.658Z,5480
2017-04-04T13:55:07.239Z,5496
2017-04-04T13:56:07.825Z,5492
2017-04-04T13:57:08.408Z,5500
2017-04-04T13:58:08.991Z,5520
2017-04-04T13:59:09.590Z,5528